sensor_id;sensor_type;location;lat;lon;timestamp;P1;durP1;ratioP1;P2;durP2;ratioP2
27505;SDS011;14939;43.596;1.320;2023-02-15T00:02:09;17.27;;;9.38;;
27505;SDS011;14939;43.596;1.320;2023-02-15T00:04:44;17.65;;;10.40;;
27505;SDS011;14939;43.596;1.320;2023-02-15T00:07:24;19.25;;;10.48;;
27505;SDS011;14939;43.596;1.320;2023-02-15T00:12:59;16.85;;;9.98;;
27505;SDS011;14939;43.596;1.320;2023-02-15T00:15:38;19.45;;;10.82;;
27505;SDS011;14939;43.596;1.320;2023-02-15T00:18:09;17.17;;;9.70;;
27505;SDS011;14939;43.596;1.320;2023-02-15T00:20:47;19.40;;;10.60;;
27505;SDS011;14939;43.596;1.320;2023-02-15T00:23:26;20.50;;;10.68;;
27505;SDS011;14939;43.596;1.320;2023-02-15T00:26:15;19.40;;;11.07;;
27505;SDS011;14939;43.596;1.320;2023-02-15T00:28:43;24.48;;;10.20;;
27505;SDS011;14939;43.596;1.320;2023-02-15T00:31:15;22.17;;;10.75;;
27505;SDS011;14939;43.596;1.320;2023-02-15T00:33:44;24.50;;;11.57;;
27505;SDS011;14939;43.596;1.320;2023-02-15T00:36:11;20.35;;;10.70;;
27505;SDS011;14939;43.596;1.320;2023-02-15T00:38:44;24.10;;;12.40;;
27505;SDS011;14939;43.596;1.320;2023-02-15T00:41:19;22.52;;;11.77;;
27505;SDS011;14939;43.596;1.320;2023-02-15T00:44:03;23.25;;;11.57;;
27505;SDS011;14939;43.596;1.320;2023-02-15T00:46:47;20.75;;;11.38;;
27505;SDS011;14939;43.596;1.320;2023-02-15T00:49:16;21.73;;;12.25;;
27505;SDS011;14939;43.596;1.320;2023-02-15T00:51:44;22.48;;;11.98;;
27505;SDS011;14939;43.596;1.320;2023-02-15T00:54:10;23.75;;;11.55;;
27505;SDS011;14939;43.596;1.320;2023-02-15T00:56:36;22.52;;;10.98;;
27505;SDS011;14939;43.596;1.320;2023-02-15T00:59:02;19.88;;;10.88;;
27505;SDS011;14939;43.596;1.320;2023-02-15T01:01:28;23.55;;;11.45;;
27505;SDS011;14939;43.596;1.320;2023-02-15T01:03:54;28.75;;;11.98;;
27505;SDS011;14939;43.596;1.320;2023-02-15T01:06:19;18.17;;;10.70;;
27505;SDS011;14939;43.596;1.320;2023-02-15T01:08:50;18.23;;;10.65;;
27505;SDS011;14939;43.596;1.320;2023-02-15T01:11:22;26.70;;;11.75;;
27505;SDS011;14939;43.596;1.320;2023-02-15T01:13:54;19.02;;;11.13;;
27505;SDS011;14939;43.596;1.320;2023-02-15T01:16:42;19.52;;;10.93;;
27505;SDS011;14939;43.596;1.320;2023-02-15T01:19:18;18.95;;;11.02;;
27505;SDS011;14939;43.596;1.320;2023-02-15T01:22:16;22.33;;;12.13;;
27505;SDS011;14939;43.596;1.320;2023-02-15T01:27:25;22.27;;;11.75;;
27505;SDS011;14939;43.596;1.320;2023-02-15T01:29:59;21.67;;;11.90;;
27505;SDS011;14939;43.596;1.320;2023-02-15T01:32:38;27.67;;;11.73;;
27505;SDS011;14939;43.596;1.320;2023-02-15T01:35:08;20.15;;;12.15;;
27505;SDS011;14939;43.596;1.320;2023-02-15T01:37:45;21.88;;;12.18;;
27505;SDS011;14939;43.596;1.320;2023-02-15T01:43:48;23.52;;;12.20;;
27505;SDS011;14939;43.596;1.320;2023-02-15T01:49:33;19.63;;;12.38;;
27505;SDS011;14939;43.596;1.320;2023-02-15T01:52:00;21.08;;;12.18;;
27505;SDS011;14939;43.596;1.320;2023-02-15T01:57:39;20.77;;;11.90;;
27505;SDS011;14939;43.596;1.320;2023-02-15T02:00:23;21.48;;;12.30;;
27505;SDS011;14939;43.596;1.320;2023-02-15T02:02:55;20.85;;;12.88;;
27505;SDS011;14939;43.596;1.320;2023-02-15T02:05:30;20.20;;;12.45;;
27505;SDS011;14939;43.596;1.320;2023-02-15T02:08:14;24.50;;;12.85;;
27505;SDS011;14939;43.596;1.320;2023-02-15T02:10:56;22.77;;;12.85;;
27505;SDS011;14939;43.596;1.320;2023-02-15T02:13:22;29.67;;;14.32;;
27505;SDS011;14939;43.596;1.320;2023-02-15T02:15:57;26.35;;;13.60;;
27505;SDS011;14939;43.596;1.320;2023-02-15T02:18:39;24.30;;;14.10;;
27505;SDS011;14939;43.596;1.320;2023-02-15T02:21:30;20.88;;;13.18;;
27505;SDS011;14939;43.596;1.320;2023-02-15T02:34:29;25.52;;;14.05;;
27505;SDS011;14939;43.596;1.320;2023-02-15T02:40:14;30.35;;;15.40;;
27505;SDS011;14939;43.596;1.320;2023-02-15T02:43:03;26.63;;;15.18;;
27505;SDS011;14939;43.596;1.320;2023-02-15T02:48:52;27.02;;;13.55;;
27505;SDS011;14939;43.596;1.320;2023-02-15T02:51:32;27.98;;;14.82;;
27505;SDS011;14939;43.596;1.320;2023-02-15T02:54:00;27.65;;;13.75;;
27505;SDS011;14939;43.596;1.320;2023-02-15T02:56:41;32.67;;;14.63;;
27505;SDS011;14939;43.596;1.320;2023-02-15T03:01:53;29.50;;;15.02;;
27505;SDS011;14939;43.596;1.320;2023-02-15T03:04:32;27.98;;;14.43;;
27505;SDS011;14939;43.596;1.320;2023-02-15T03:07:14;24.88;;;14.90;;
27505;SDS011;14939;43.596;1.320;2023-02-15T03:09:52;28.00;;;14.10;;
27505;SDS011;14939;43.596;1.320;2023-02-15T03:12:28;30.40;;;14.75;;
27505;SDS011;14939;43.596;1.320;2023-02-15T03:17:51;29.92;;;15.18;;
27505;SDS011;14939;43.596;1.320;2023-02-15T03:20:40;30.80;;;14.73;;
27505;SDS011;14939;43.596;1.320;2023-02-15T03:23:14;28.92;;;15.82;;
27505;SDS011;14939;43.596;1.320;2023-02-15T03:25:48;27.35;;;14.88;;
27505;SDS011;14939;43.596;1.320;2023-02-15T03:28:56;31.88;;;15.10;;
27505;SDS011;14939;43.596;1.320;2023-02-15T03:31:35;27.05;;;15.32;;
27505;SDS011;14939;43.596;1.320;2023-02-15T03:34:06;29.80;;;15.43;;
27505;SDS011;14939;43.596;1.320;2023-02-15T03:36:46;31.20;;;16.17;;
27505;SDS011;14939;43.596;1.320;2023-02-15T03:39:33;30.90;;;15.05;;
27505;SDS011;14939;43.596;1.320;2023-02-15T03:44:29;33.55;;;16.65;;
27505;SDS011;14939;43.596;1.320;2023-02-15T03:47:04;33.97;;;16.98;;
27505;SDS011;14939;43.596;1.320;2023-02-15T03:49:46;37.72;;;17.35;;
27505;SDS011;14939;43.596;1.320;2023-02-15T03:52:12;30.00;;;18.00;;
27505;SDS011;14939;43.596;1.320;2023-02-15T03:54:41;33.30;;;18.25;;
27505;SDS011;14939;43.596;1.320;2023-02-15T04:00:11;31.20;;;17.98;;
27505;SDS011;14939;43.596;1.320;2023-02-15T04:05:54;30.80;;;17.13;;
27505;SDS011;14939;43.596;1.320;2023-02-15T04:08:20;34.65;;;18.25;;
27505;SDS011;14939;43.596;1.320;2023-02-15T04:11:06;27.95;;;18.02;;
27505;SDS011;14939;43.596;1.320;2023-02-15T04:13:33;39.20;;;18.85;;
27505;SDS011;14939;43.596;1.320;2023-02-15T04:19:05;33.90;;;18.38;;
27505;SDS011;14939;43.596;1.320;2023-02-15T04:21:50;40.03;;;19.48;;
27505;SDS011;14939;43.596;1.320;2023-02-15T04:24:34;35.25;;;19.63;;
27505;SDS011;14939;43.596;1.320;2023-02-15T04:27:18;34.63;;;19.00;;
27505;SDS011;14939;43.596;1.320;2023-02-15T04:29:43;41.65;;;19.83;;
27505;SDS011;14939;43.596;1.320;2023-02-15T04:32:09;31.77;;;18.40;;
27505;SDS011;14939;43.596;1.320;2023-02-15T04:34:35;38.28;;;19.67;;
27505;SDS011;14939;43.596;1.320;2023-02-15T04:37:00;34.17;;;19.95;;
27505;SDS011;14939;43.596;1.320;2023-02-15T04:39:26;36.15;;;18.77;;
27505;SDS011;14939;43.596;1.320;2023-02-15T04:41:52;36.50;;;19.63;;
27505;SDS011;14939;43.596;1.320;2023-02-15T04:44:17;33.28;;;18.92;;
27505;SDS011;14939;43.596;1.320;2023-02-15T04:46:43;34.88;;;18.98;;
27505;SDS011;14939;43.596;1.320;2023-02-15T04:49:09;31.83;;;19.65;;
27505;SDS011;14939;43.596;1.320;2023-02-15T04:51:35;32.67;;;18.92;;
27505;SDS011;14939;43.596;1.320;2023-02-15T04:54:00;38.08;;;19.13;;
27505;SDS011;14939;43.596;1.320;2023-02-15T04:56:26;42.53;;;20.05;;
27505;SDS011;14939;43.596;1.320;2023-02-15T04:58:52;34.85;;;20.60;;
27505;SDS011;14939;43.596;1.320;2023-02-15T05:01:18;34.53;;;20.67;;
27505;SDS011;14939;43.596;1.320;2023-02-15T05:03:43;34.03;;;20.05;;
27505;SDS011;14939;43.596;1.320;2023-02-15T05:06:09;37.10;;;20.27;;
27505;SDS011;14939;43.596;1.320;2023-02-15T05:08:35;41.22;;;20.55;;
27505;SDS011;14939;43.596;1.320;2023-02-15T05:11:00;40.92;;;20.65;;
27505;SDS011;14939;43.596;1.320;2023-02-15T05:13:26;34.03;;;20.58;;
27505;SDS011;14939;43.596;1.320;2023-02-15T05:15:52;42.53;;;20.83;;
27505;SDS011;14939;43.596;1.320;2023-02-15T05:18:18;41.58;;;21.15;;
27505;SDS011;14939;43.596;1.320;2023-02-15T05:20:45;39.53;;;21.15;;
27505;SDS011;14939;43.596;1.320;2023-02-15T05:23:11;42.30;;;21.33;;
27505;SDS011;14939;43.596;1.320;2023-02-15T05:25:37;38.90;;;21.92;;
27505;SDS011;14939;43.596;1.320;2023-02-15T05:28:22;41.03;;;21.25;;
27505;SDS011;14939;43.596;1.320;2023-02-15T05:31:05;36.92;;;21.20;;
27505;SDS011;14939;43.596;1.320;2023-02-15T05:33:37;36.53;;;21.00;;
27505;SDS011;14939;43.596;1.320;2023-02-15T05:36:03;38.88;;;20.90;;
27505;SDS011;14939;43.596;1.320;2023-02-15T05:38:29;43.95;;;23.20;;
27505;SDS011;14939;43.596;1.320;2023-02-15T05:40:55;41.67;;;22.50;;
27505;SDS011;14939;43.596;1.320;2023-02-15T05:43:21;43.95;;;20.95;;
27505;SDS011;14939;43.596;1.320;2023-02-15T05:45:48;39.45;;;23.13;;
27505;SDS011;14939;43.596;1.320;2023-02-15T05:48:15;43.88;;;22.70;;
27505;SDS011;14939;43.596;1.320;2023-02-15T05:50:42;43.53;;;22.65;;
27505;SDS011;14939;43.596;1.320;2023-02-15T05:53:07;43.65;;;22.77;;
27505;SDS011;14939;43.596;1.320;2023-02-15T05:55:33;40.38;;;22.92;;
27505;SDS011;14939;43.596;1.320;2023-02-15T05:57:59;40.78;;;21.80;;
27505;SDS011;14939;43.596;1.320;2023-02-15T06:00:25;39.45;;;22.38;;
27505;SDS011;14939;43.596;1.320;2023-02-15T06:02:50;44.10;;;22.02;;
27505;SDS011;14939;43.596;1.320;2023-02-15T06:05:16;43.13;;;21.20;;
27505;SDS011;14939;43.596;1.320;2023-02-15T06:07:43;37.78;;;21.50;;
27505;SDS011;14939;43.596;1.320;2023-02-15T06:10:09;35.40;;;20.85;;
27505;SDS011;14939;43.596;1.320;2023-02-15T06:12:35;39.60;;;20.42;;
27505;SDS011;14939;43.596;1.320;2023-02-15T06:15:01;35.15;;;20.98;;
27505;SDS011;14939;43.596;1.320;2023-02-15T06:20:49;35.47;;;20.13;;
27505;SDS011;14939;43.596;1.320;2023-02-15T06:23:15;37.03;;;21.40;;
27505;SDS011;14939;43.596;1.320;2023-02-15T06:25:43;38.58;;;20.58;;
27505;SDS011;14939;43.596;1.320;2023-02-15T06:28:10;41.53;;;20.98;;
27505;SDS011;14939;43.596;1.320;2023-02-15T06:30:36;40.38;;;22.05;;
27505;SDS011;14939;43.596;1.320;2023-02-15T06:33:01;38.80;;;21.33;;
27505;SDS011;14939;43.596;1.320;2023-02-15T06:35:27;44.60;;;22.75;;
27505;SDS011;14939;43.596;1.320;2023-02-15T06:37:53;37.28;;;20.35;;
27505;SDS011;14939;43.596;1.320;2023-02-15T06:40:19;38.38;;;21.25;;
27505;SDS011;14939;43.596;1.320;2023-02-15T06:42:45;37.92;;;22.77;;
27505;SDS011;14939;43.596;1.320;2023-02-15T06:45:11;38.78;;;21.55;;
27505;SDS011;14939;43.596;1.320;2023-02-15T06:47:37;39.15;;;21.55;;
27505;SDS011;14939;43.596;1.320;2023-02-15T06:50:03;39.72;;;22.10;;
27505;SDS011;14939;43.596;1.320;2023-02-15T06:52:30;41.88;;;22.55;;
27505;SDS011;14939;43.596;1.320;2023-02-15T06:54:56;41.72;;;22.77;;
27505;SDS011;14939;43.596;1.320;2023-02-15T06:57:22;40.88;;;23.42;;
27505;SDS011;14939;43.596;1.320;2023-02-15T06:59:47;38.15;;;22.23;;
27505;SDS011;14939;43.596;1.320;2023-02-15T07:02:13;39.33;;;22.15;;
27505;SDS011;14939;43.596;1.320;2023-02-15T07:04:39;39.63;;;21.77;;
27505;SDS011;14939;43.596;1.320;2023-02-15T07:07:08;43.13;;;22.73;;
27505;SDS011;14939;43.596;1.320;2023-02-15T07:09:34;35.30;;;21.58;;
27505;SDS011;14939;43.596;1.320;2023-02-15T07:12:00;37.22;;;21.23;;
27505;SDS011;14939;43.596;1.320;2023-02-15T07:14:44;38.10;;;21.58;;
27505;SDS011;14939;43.596;1.320;2023-02-15T07:17:10;39.05;;;22.65;;
27505;SDS011;14939;43.596;1.320;2023-02-15T07:19:37;42.97;;;22.85;;
27505;SDS011;14939;43.596;1.320;2023-02-15T07:22:02;41.80;;;22.38;;
27505;SDS011;14939;43.596;1.320;2023-02-15T07:24:30;37.20;;;23.05;;
27505;SDS011;14939;43.596;1.320;2023-02-15T07:26:56;40.67;;;22.83;;
27505;SDS011;14939;43.596;1.320;2023-02-15T07:29:22;43.33;;;22.88;;
27505;SDS011;14939;43.596;1.320;2023-02-15T07:31:48;40.30;;;23.38;;
27505;SDS011;14939;43.596;1.320;2023-02-15T07:34:14;41.38;;;23.60;;
27505;SDS011;14939;43.596;1.320;2023-02-15T07:36:40;45.17;;;25.45;;
27505;SDS011;14939;43.596;1.320;2023-02-15T07:39:06;41.38;;;24.95;;
27505;SDS011;14939;43.596;1.320;2023-02-15T07:41:32;40.38;;;24.80;;
27505;SDS011;14939;43.596;1.320;2023-02-15T07:43:58;37.55;;;24.77;;
27505;SDS011;14939;43.596;1.320;2023-02-15T07:46:24;40.97;;;25.25;;
27505;SDS011;14939;43.596;1.320;2023-02-15T07:48:49;39.75;;;24.20;;
27505;SDS011;14939;43.596;1.320;2023-02-15T07:51:15;48.97;;;26.50;;
27505;SDS011;14939;43.596;1.320;2023-02-15T07:53:41;48.22;;;24.13;;
27505;SDS011;14939;43.596;1.320;2023-02-15T07:56:09;39.95;;;22.95;;
27505;SDS011;14939;43.596;1.320;2023-02-15T07:58:37;42.90;;;23.42;;
27505;SDS011;14939;43.596;1.320;2023-02-15T08:01:25;42.00;;;23.40;;
27505;SDS011;14939;43.596;1.320;2023-02-15T08:03:51;41.47;;;24.42;;
27505;SDS011;14939;43.596;1.320;2023-02-15T08:06:18;46.35;;;24.27;;
27505;SDS011;14939;43.596;1.320;2023-02-15T08:08:44;47.58;;;24.52;;
27505;SDS011;14939;43.596;1.320;2023-02-15T08:14:02;38.15;;;25.25;;
27505;SDS011;14939;43.596;1.320;2023-02-15T08:16:42;42.10;;;26.02;;
27505;SDS011;14939;43.596;1.320;2023-02-15T08:19:20;43.45;;;25.98;;
27505;SDS011;14939;43.596;1.320;2023-02-15T08:21:54;49.90;;;26.90;;
27505;SDS011;14939;43.596;1.320;2023-02-15T08:24:25;46.13;;;25.80;;
27505;SDS011;14939;43.596;1.320;2023-02-15T08:26:55;45.42;;;24.83;;
27505;SDS011;14939;43.596;1.320;2023-02-15T08:29:23;37.10;;;24.00;;
27505;SDS011;14939;43.596;1.320;2023-02-15T08:31:58;36.17;;;22.98;;
27505;SDS011;14939;43.596;1.320;2023-02-15T08:34:27;42.55;;;24.50;;
27505;SDS011;14939;43.596;1.320;2023-02-15T08:36:54;38.53;;;21.67;;
27505;SDS011;14939;43.596;1.320;2023-02-15T08:39:20;36.88;;;21.30;;
27505;SDS011;14939;43.596;1.320;2023-02-15T08:41:46;33.13;;;19.75;;
27505;SDS011;14939;43.596;1.320;2023-02-15T08:44:14;29.55;;;18.05;;
27505;SDS011;14939;43.596;1.320;2023-02-15T08:46:44;30.08;;;16.30;;
27505;SDS011;14939;43.596;1.320;2023-02-15T08:49:12;22.00;;;13.90;;
27505;SDS011;14939;43.596;1.320;2023-02-15T08:51:42;22.27;;;12.80;;
27505;SDS011;14939;43.596;1.320;2023-02-15T08:54:09;20.67;;;12.95;;
27505;SDS011;14939;43.596;1.320;2023-02-15T08:56:38;24.33;;;12.45;;
27505;SDS011;14939;43.596;1.320;2023-02-15T08:59:05;22.02;;;11.73;;
27505;SDS011;14939;43.596;1.320;2023-02-15T09:01:36;20.80;;;11.73;;
27505;SDS011;14939;43.596;1.320;2023-02-15T09:04:05;21.70;;;10.95;;
27505;SDS011;14939;43.596;1.320;2023-02-15T09:06:33;18.05;;;11.27;;
27505;SDS011;14939;43.596;1.320;2023-02-15T09:09:00;18.88;;;11.40;;
27505;SDS011;14939;43.596;1.320;2023-02-15T09:11:28;20.05;;;10.65;;
27505;SDS011;14939;43.596;1.320;2023-02-15T09:14:00;16.73;;;10.05;;
27505;SDS011;14939;43.596;1.320;2023-02-15T09:16:28;18.60;;;10.13;;
27505;SDS011;14939;43.596;1.320;2023-02-15T09:18:55;16.33;;;8.50;;
27505;SDS011;14939;43.596;1.320;2023-02-15T09:21:29;17.10;;;10.65;;
27505;SDS011;14939;43.596;1.320;2023-02-15T09:23:57;15.65;;;9.55;;
27505;SDS011;14939;43.596;1.320;2023-02-15T09:26:25;15.57;;;9.13;;
27505;SDS011;14939;43.596;1.320;2023-02-15T09:28:53;20.73;;;9.32;;
27505;SDS011;14939;43.596;1.320;2023-02-15T09:31:24;20.77;;;10.02;;
27505;SDS011;14939;43.596;1.320;2023-02-15T09:33:51;18.05;;;9.52;;
27505;SDS011;14939;43.596;1.320;2023-02-15T09:38:55;15.18;;;8.70;;
27505;SDS011;14939;43.596;1.320;2023-02-15T09:47:14;16.27;;;8.70;;
27505;SDS011;14939;43.596;1.320;2023-02-15T10:00:57;14.25;;;8.55;;
27505;SDS011;14939;43.596;1.320;2023-02-15T10:03:40;14.20;;;8.60;;
27505;SDS011;14939;43.596;1.320;2023-02-15T10:15:04;12.73;;;7.45;;
27505;SDS011;14939;43.596;1.320;2023-02-15T10:26:08;10.55;;;7.05;;
27505;SDS011;14939;43.596;1.320;2023-02-15T10:34:11;13.50;;;8.30;;
27505;SDS011;14939;43.596;1.320;2023-02-15T10:39:32;15.05;;;7.70;;
27505;SDS011;14939;43.596;1.320;2023-02-15T10:45:14;11.07;;;7.22;;
27505;SDS011;14939;43.596;1.320;2023-02-15T10:50:57;15.10;;;7.82;;
27505;SDS011;14939;43.596;1.320;2023-02-15T11:01:46;13.10;;;6.95;;
27505;SDS011;14939;43.596;1.320;2023-02-15T11:07:16;11.95;;;6.65;;
27505;SDS011;14939;43.596;1.320;2023-02-15T11:09:53;11.13;;;6.18;;
27505;SDS011;14939;43.596;1.320;2023-02-15T11:12:27;12.18;;;6.65;;
27505;SDS011;14939;43.596;1.320;2023-02-15T11:15:30;11.18;;;6.95;;
27505;SDS011;14939;43.596;1.320;2023-02-15T11:18:11;12.52;;;6.32;;
27505;SDS011;14939;43.596;1.320;2023-02-15T11:20:41;9.55;;;6.30;;
27505;SDS011;14939;43.596;1.320;2023-02-15T11:23:14;14.63;;;6.63;;
27505;SDS011;14939;43.596;1.320;2023-02-15T11:25:44;11.00;;;6.13;;
27505;SDS011;14939;43.596;1.320;2023-02-15T11:28:18;12.25;;;6.50;;
27505;SDS011;14939;43.596;1.320;2023-02-15T11:30:53;13.65;;;6.88;;
27505;SDS011;14939;43.596;1.320;2023-02-15T11:36:35;9.60;;;6.10;;
27505;SDS011;14939;43.596;1.320;2023-02-15T11:38:43;10.73;;;5.80;;
27505;SDS011;14939;43.596;1.320;2023-02-15T11:41:14;9.07;;;5.93;;
27505;SDS011;14939;43.596;1.320;2023-02-15T11:43:56;9.95;;;5.50;;
27505;SDS011;14939;43.596;1.320;2023-02-15T11:46:23;11.85;;;5.43;;
27505;SDS011;14939;43.596;1.320;2023-02-15T11:48:49;11.73;;;5.50;;
27505;SDS011;14939;43.596;1.320;2023-02-15T11:51:16;8.38;;;5.50;;
27505;SDS011;14939;43.596;1.320;2023-02-15T11:53:44;13.43;;;5.97;;
27505;SDS011;14939;43.596;1.320;2023-02-15T11:56:17;7.93;;;4.93;;
27505;SDS011;14939;43.596;1.320;2023-02-15T11:59:00;11.65;;;5.60;;
27505;SDS011;14939;43.596;1.320;2023-02-15T12:01:36;10.10;;;5.60;;
27505;SDS011;14939;43.596;1.320;2023-02-15T12:14:58;7.60;;;4.85;;
27505;SDS011;14939;43.596;1.320;2023-02-15T12:17:37;7.00;;;4.60;;
27505;SDS011;14939;43.596;1.320;2023-02-15T12:20:46;10.57;;;5.60;;
27505;SDS011;14939;43.596;1.320;2023-02-15T12:22:59;11.73;;;5.60;;
27505;SDS011;14939;43.596;1.320;2023-02-15T12:30:45;11.32;;;5.70;;
27505;SDS011;14939;43.596;1.320;2023-02-15T12:38:40;11.43;;;5.60;;
27505;SDS011;14939;43.596;1.320;2023-02-15T12:41:22;9.60;;;5.20;;
27505;SDS011;14939;43.596;1.320;2023-02-15T12:44:35;9.90;;;5.50;;
27505;SDS011;14939;43.596;1.320;2023-02-15T12:46:56;9.52;;;5.20;;
27505;SDS011;14939;43.596;1.320;2023-02-15T12:49:30;9.70;;;5.72;;
27505;SDS011;14939;43.596;1.320;2023-02-15T12:51:57;10.95;;;5.40;;
27505;SDS011;14939;43.596;1.320;2023-02-15T12:54:33;11.73;;;6.28;;
27505;SDS011;14939;43.596;1.320;2023-02-15T12:59:52;8.02;;;4.97;;
27505;SDS011;14939;43.596;1.320;2023-02-15T13:02:24;7.72;;;4.78;;
27505;SDS011;14939;43.596;1.320;2023-02-15T13:04:56;8.27;;;5.03;;
27505;SDS011;14939;43.596;1.320;2023-02-15T13:07:29;8.15;;;5.10;;
27505;SDS011;14939;43.596;1.320;2023-02-15T13:09:57;9.02;;;5.03;;
27505;SDS011;14939;43.596;1.320;2023-02-15T13:12:24;8.57;;;5.18;;
27505;SDS011;14939;43.596;1.320;2023-02-15T13:14:52;8.60;;;5.30;;
27505;SDS011;14939;43.596;1.320;2023-02-15T13:17:30;8.68;;;5.00;;
27505;SDS011;14939;43.596;1.320;2023-02-15T13:20:01;7.82;;;5.10;;
27505;SDS011;14939;43.596;1.320;2023-02-15T13:22:45;8.43;;;4.80;;
27505;SDS011;14939;43.596;1.320;2023-02-15T13:25:14;7.63;;;4.57;;
27505;SDS011;14939;43.596;1.320;2023-02-15T13:27:46;7.70;;;4.40;;
27505;SDS011;14939;43.596;1.320;2023-02-15T13:30:22;9.40;;;4.25;;
27505;SDS011;14939;43.596;1.320;2023-02-15T13:33:04;11.32;;;4.45;;
27505;SDS011;14939;43.596;1.320;2023-02-15T13:35:46;10.35;;;5.05;;
27505;SDS011;14939;43.596;1.320;2023-02-15T13:41:20;6.03;;;4.30;;
27505;SDS011;14939;43.596;1.320;2023-02-15T13:52:40;11.50;;;4.85;;
27505;SDS011;14939;43.596;1.320;2023-02-15T13:58:05;6.60;;;4.75;;
27505;SDS011;14939;43.596;1.320;2023-02-15T14:06:28;12.30;;;4.90;;
27505;SDS011;14939;43.596;1.320;2023-02-15T14:09:18;8.68;;;4.53;;
27505;SDS011;14939;43.596;1.320;2023-02-15T14:20:07;8.18;;;4.13;;
27505;SDS011;14939;43.596;1.320;2023-02-15T14:25:38;9.52;;;4.35;;
27505;SDS011;14939;43.596;1.320;2023-02-15T14:28:13;10.27;;;4.63;;
27505;SDS011;14939;43.596;1.320;2023-02-15T14:30:48;7.85;;;4.00;;
27505;SDS011;14939;43.596;1.320;2023-02-15T14:35:59;7.88;;;4.40;;
27505;SDS011;14939;43.596;1.320;2023-02-15T14:49:12;7.32;;;3.80;;
27505;SDS011;14939;43.596;1.320;2023-02-15T15:01:57;9.35;;;4.22;;
27505;SDS011;14939;43.596;1.320;2023-02-15T15:04:35;8.57;;;4.50;;
27505;SDS011;14939;43.596;1.320;2023-02-15T15:10:04;8.15;;;4.47;;
27505;SDS011;14939;43.596;1.320;2023-02-15T15:12:43;6.68;;;4.38;;
27505;SDS011;14939;43.596;1.320;2023-02-15T15:17:58;6.60;;;4.35;;
27505;SDS011;14939;43.596;1.320;2023-02-15T15:33:53;9.10;;;4.60;;
27505;SDS011;14939;43.596;1.320;2023-02-15T15:45:02;6.55;;;4.32;;
27505;SDS011;14939;43.596;1.320;2023-02-15T15:50:29;6.03;;;4.90;;
27505;SDS011;14939;43.596;1.320;2023-02-15T15:52:57;6.35;;;4.30;;
27505;SDS011;14939;43.596;1.320;2023-02-15T15:55:25;10.52;;;4.30;;
27505;SDS011;14939;43.596;1.320;2023-02-15T15:57:59;10.25;;;4.38;;
27505;SDS011;14939;43.596;1.320;2023-02-15T16:01:04;10.60;;;5.15;;
27505;SDS011;14939;43.596;1.320;2023-02-15T16:03:31;8.50;;;4.75;;
27505;SDS011;14939;43.596;1.320;2023-02-15T16:05:57;6.82;;;4.35;;
27505;SDS011;14939;43.596;1.320;2023-02-15T16:10:55;8.25;;;4.82;;
27505;SDS011;14939;43.596;1.320;2023-02-15T16:13:21;8.52;;;4.93;;
27505;SDS011;14939;43.596;1.320;2023-02-15T16:15:49;8.90;;;5.30;;
27505;SDS011;14939;43.596;1.320;2023-02-15T16:18:21;13.95;;;4.40;;
27505;SDS011;14939;43.596;1.320;2023-02-15T16:28:29;10.68;;;4.68;;
27505;SDS011;14939;43.596;1.320;2023-02-15T16:30:58;8.13;;;4.72;;
27505;SDS011;14939;43.596;1.320;2023-02-15T16:33:37;8.38;;;5.00;;
27505;SDS011;14939;43.596;1.320;2023-02-15T16:36:04;8.85;;;4.85;;
27505;SDS011;14939;43.596;1.320;2023-02-15T16:41:11;10.25;;;4.90;;
27505;SDS011;14939;43.596;1.320;2023-02-15T16:43:49;10.90;;;5.45;;
27505;SDS011;14939;43.596;1.320;2023-02-15T16:46:18;12.25;;;6.13;;
27505;SDS011;14939;43.596;1.320;2023-02-15T16:48:53;8.50;;;5.25;;
27505;SDS011;14939;43.596;1.320;2023-02-15T16:51:24;11.52;;;5.90;;
27505;SDS011;14939;43.596;1.320;2023-02-15T16:53:52;10.40;;;6.07;;
27505;SDS011;14939;43.596;1.320;2023-02-15T16:56:24;10.48;;;5.93;;
27505;SDS011;14939;43.596;1.320;2023-02-15T16:58:52;9.35;;;6.32;;
27505;SDS011;14939;43.596;1.320;2023-02-15T17:01:21;9.98;;;6.70;;
27505;SDS011;14939;43.596;1.320;2023-02-15T17:03:49;10.35;;;7.70;;
27505;SDS011;14939;43.596;1.320;2023-02-15T17:06:23;11.35;;;8.15;;
27505;SDS011;14939;43.596;1.320;2023-02-15T17:09:03;13.90;;;8.77;;
27505;SDS011;14939;43.596;1.320;2023-02-15T17:11:40;13.43;;;9.00;;
27505;SDS011;14939;43.596;1.320;2023-02-15T17:16:45;17.58;;;10.20;;
27505;SDS011;14939;43.596;1.320;2023-02-15T17:19:23;19.27;;;10.77;;
27505;SDS011;14939;43.596;1.320;2023-02-15T17:21:55;21.35;;;10.50;;
27505;SDS011;14939;43.596;1.320;2023-02-15T17:24:42;21.52;;;9.55;;
27505;SDS011;14939;43.596;1.320;2023-02-15T17:27:20;18.65;;;10.70;;
27505;SDS011;14939;43.596;1.320;2023-02-15T17:29:50;20.58;;;10.68;;
27505;SDS011;14939;43.596;1.320;2023-02-15T17:32:24;18.15;;;10.55;;
27505;SDS011;14939;43.596;1.320;2023-02-15T17:34:59;15.57;;;10.05;;
27505;SDS011;14939;43.596;1.320;2023-02-15T17:37:29;11.70;;;8.10;;
27505;SDS011;14939;43.596;1.320;2023-02-15T17:40:26;14.80;;;8.85;;
27505;SDS011;14939;43.596;1.320;2023-02-15T17:42:53;16.08;;;9.45;;
27505;SDS011;14939;43.596;1.320;2023-02-15T17:45:19;13.30;;;9.38;;
27505;SDS011;14939;43.596;1.320;2023-02-15T17:47:46;14.05;;;9.65;;
27505;SDS011;14939;43.596;1.320;2023-02-15T17:50:32;17.55;;;10.13;;
27505;SDS011;14939;43.596;1.320;2023-02-15T17:52:58;15.20;;;9.27;;
27505;SDS011;14939;43.596;1.320;2023-02-15T17:55:26;14.68;;;8.93;;
27505;SDS011;14939;43.596;1.320;2023-02-15T17:58:09;15.10;;;9.27;;
27505;SDS011;14939;43.596;1.320;2023-02-15T18:00:41;15.57;;;9.82;;
27505;SDS011;14939;43.596;1.320;2023-02-15T18:03:49;13.27;;;9.25;;
27505;SDS011;14939;43.596;1.320;2023-02-15T18:06:35;17.08;;;10.35;;
27505;SDS011;14939;43.596;1.320;2023-02-15T18:09:21;16.38;;;10.88;;
27505;SDS011;14939;43.596;1.320;2023-02-15T18:12:22;17.27;;;11.63;;
27505;SDS011;14939;43.596;1.320;2023-02-15T18:14:48;17.67;;;11.88;;
27505;SDS011;14939;43.596;1.320;2023-02-15T18:17:15;17.38;;;12.82;;
27505;SDS011;14939;43.596;1.320;2023-02-15T18:19:43;27.90;;;17.63;;
27505;SDS011;14939;43.596;1.320;2023-02-15T18:22:10;31.45;;;19.08;;
27505;SDS011;14939;43.596;1.320;2023-02-15T18:24:37;27.88;;;18.33;;
27505;SDS011;14939;43.596;1.320;2023-02-15T18:27:03;24.38;;;16.10;;
27505;SDS011;14939;43.596;1.320;2023-02-15T18:29:30;23.40;;;14.60;;
27505;SDS011;14939;43.596;1.320;2023-02-15T18:31:58;20.50;;;13.38;;
27505;SDS011;14939;43.596;1.320;2023-02-15T18:34:32;19.60;;;13.13;;
27505;SDS011;14939;43.596;1.320;2023-02-15T18:37:02;18.55;;;13.05;;
27505;SDS011;14939;43.596;1.320;2023-02-15T18:42:19;16.95;;;10.82;;
27505;SDS011;14939;43.596;1.320;2023-02-15T18:44:47;17.73;;;12.38;;
27505;SDS011;14939;43.596;1.320;2023-02-15T18:47:15;16.73;;;11.93;;
27505;SDS011;14939;43.596;1.320;2023-02-15T18:49:41;22.83;;;16.42;;
27505;SDS011;14939;43.596;1.320;2023-02-15T18:52:11;20.33;;;13.95;;
27505;SDS011;14939;43.596;1.320;2023-02-15T18:54:40;16.17;;;11.50;;
27505;SDS011;14939;43.596;1.320;2023-02-15T18:57:08;19.63;;;11.70;;
27505;SDS011;14939;43.596;1.320;2023-02-15T18:59:37;17.33;;;11.30;;
27505;SDS011;14939;43.596;1.320;2023-02-15T19:02:05;19.88;;;11.90;;
27505;SDS011;14939;43.596;1.320;2023-02-15T19:04:38;18.75;;;11.55;;
27505;SDS011;14939;43.596;1.320;2023-02-15T19:07:03;27.45;;;15.25;;